sensor_id;sensor_type;location;lat;lon;timestamp;temperature;humidity
17341;DHT22;8788;49.930;8.660;2023-09-18T00:01:53;22.50;99.90
17341;DHT22;8788;49.930;8.660;2023-09-18T00:04:20;22.50;99.90
17341;DHT22;8788;49.930;8.660;2023-09-18T00:06:47;22.50;99.90
17341;DHT22;8788;49.930;8.660;2023-09-18T00:09:14;22.50;99.90
17341;DHT22;8788;49.930;8.660;2023-09-18T00:11:41;22.50;99.90
17341;DHT22;8788;49.930;8.660;2023-09-18T00:14:09;22.50;99.90
17341;DHT22;8788;49.930;8.660;2023-09-18T00:16:36;22.50;99.90
17341;DHT22;8788;49.930;8.660;2023-09-18T00:19:06;22.50;99.90
17341;DHT22;8788;49.930;8.660;2023-09-18T00:21:33;22.40;99.90
17341;DHT22;8788;49.930;8.660;2023-09-18T00:24:01;22.30;99.90
17341;DHT22;8788;49.930;8.660;2023-09-18T00:26:28;22.30;99.90
17341;DHT22;8788;49.930;8.660;2023-09-18T00:28:56;22.30;99.90
17341;DHT22;8788;49.930;8.660;2023-09-18T00:31:23;22.30;99.90
17341;DHT22;8788;49.930;8.660;2023-09-18T00:33:51;22.30;99.90
17341;DHT22;8788;49.930;8.660;2023-09-18T00:36:19;22.40;99.90
17341;DHT22;8788;49.930;8.660;2023-09-18T00:38:46;22.40;99.90
17341;DHT22;8788;49.930;8.660;2023-09-18T00:41:13;22.40;99.90
17341;DHT22;8788;49.930;8.660;2023-09-18T00:43:40;22.50;99.90
17341;DHT22;8788;49.930;8.660;2023-09-18T00:46:07;22.50;99.90
17341;DHT22;8788;49.930;8.660;2023-09-18T00:48:35;22.50;99.90
17341;DHT22;8788;49.930;8.660;2023-09-18T00:51:02;22.40;99.90
17341;DHT22;8788;49.930;8.660;2023-09-18T00:53:31;22.40;99.90
17341;DHT22;8788;49.930;8.660;2023-09-18T00:56:00;22.40;99.90
17341;DHT22;8788;49.930;8.660;2023-09-18T00:58:30;22.30;99.90
17341;DHT22;8788;49.930;8.660;2023-09-18T01:00:57;22.30;99.90
17341;DHT22;8788;49.930;8.660;2023-09-18T01:03:25;22.30;99.90
17341;DHT22;8788;49.930;8.660;2023-09-18T01:05:52;22.30;99.90
17341;DHT22;8788;49.930;8.660;2023-09-18T01:08:20;22.30;99.90
17341;DHT22;8788;49.930;8.660;2023-09-18T01:10:56;22.30;99.90
17341;DHT22;8788;49.930;8.660;2023-09-18T01:13:30;22.30;99.90
17341;DHT22;8788;49.930;8.660;2023-09-18T01:16:05;22.30;99.90
17341;DHT22;8788;49.930;8.660;2023-09-18T01:18:35;22.30;99.90
17341;DHT22;8788;49.930;8.660;2023-09-18T01:21:02;22.20;99.90
17341;DHT22;8788;49.930;8.660;2023-09-18T01:23:30;22.20;99.90
17341;DHT22;8788;49.930;8.660;2023-09-18T01:25:57;22.20;99.90
17341;DHT22;8788;49.930;8.660;2023-09-18T01:28:24;22.20;99.90
17341;DHT22;8788;49.930;8.660;2023-09-18T01:30:51;22.20;99.90
17341;DHT22;8788;49.930;8.660;2023-09-18T01:33:19;22.20;99.90
17341;DHT22;8788;49.930;8.660;2023-09-18T01:35:48;22.20;99.90
17341;DHT22;8788;49.930;8.660;2023-09-18T01:38:15;22.20;99.90
17341;DHT22;8788;49.930;8.660;2023-09-18T01:40:44;22.20;99.90
17341;DHT22;8788;49.930;8.660;2023-09-18T01:43:11;22.20;99.90
17341;DHT22;8788;49.930;8.660;2023-09-18T01:45:38;22.10;99.90
17341;DHT22;8788;49.930;8.660;2023-09-18T01:48:06;22.10;99.90
17341;DHT22;8788;49.930;8.660;2023-09-18T01:50:33;22.00;99.90
17341;DHT22;8788;49.930;8.660;2023-09-18T01:53:00;22.00;99.90
17341;DHT22;8788;49.930;8.660;2023-09-18T01:55:28;22.00;99.90
17341;DHT22;8788;49.930;8.660;2023-09-18T01:57:57;22.10;99.90
17341;DHT22;8788;49.930;8.660;2023-09-18T02:00:25;22.00;99.90
17341;DHT22;8788;49.930;8.660;2023-09-18T02:02:53;21.90;99.90
17341;DHT22;8788;49.930;8.660;2023-09-18T02:05:20;21.80;99.90
17341;DHT22;8788;49.930;8.660;2023-09-18T02:07:47;21.70;99.90
17341;DHT22;8788;49.930;8.660;2023-09-18T02:10:14;21.70;99.90
17341;DHT22;8788;49.930;8.660;2023-09-18T02:12:42;21.60;99.90
17341;DHT22;8788;49.930;8.660;2023-09-18T02:15:11;21.50;99.90
17341;DHT22;8788;49.930;8.660;2023-09-18T02:17:38;21.30;99.90
17341;DHT22;8788;49.930;8.660;2023-09-18T02:20:07;21.30;99.90
17341;DHT22;8788;49.930;8.660;2023-09-18T02:22:37;21.30;99.90
17341;DHT22;8788;49.930;8.660;2023-09-18T02:25:06;21.20;99.90
17341;DHT22;8788;49.930;8.660;2023-09-18T02:27:34;21.20;99.90
17341;DHT22;8788;49.930;8.660;2023-09-18T02:30:01;21.20;99.90
17341;DHT22;8788;49.930;8.660;2023-09-18T02:32:29;21.20;99.90
17341;DHT22;8788;49.930;8.660;2023-09-18T02:34:58;21.10;99.90
17341;DHT22;8788;49.930;8.660;2023-09-18T02:37:25;21.20;99.90
17341;DHT22;8788;49.930;8.660;2023-09-18T02:39:52;21.20;99.90
17341;DHT22;8788;49.930;8.660;2023-09-18T02:42:20;21.20;99.90
17341;DHT22;8788;49.930;8.660;2023-09-18T02:44:47;21.30;99.90
17341;DHT22;8788;49.930;8.660;2023-09-18T02:47:14;21.30;99.90
17341;DHT22;8788;49.930;8.660;2023-09-18T02:49:42;21.30;99.90
17341;DHT22;8788;49.930;8.660;2023-09-18T02:52:10;21.30;99.90
17341;DHT22;8788;49.930;8.660;2023-09-18T02:54:37;21.30;99.90
17341;DHT22;8788;49.930;8.660;2023-09-18T02:57:04;21.20;99.90
17341;DHT22;8788;49.930;8.660;2023-09-18T02:59:31;21.20;99.90
17341;DHT22;8788;49.930;8.660;2023-09-18T03:01:58;21.20;99.90
17341;DHT22;8788;49.930;8.660;2023-09-18T03:04:25;21.20;99.90
17341;DHT22;8788;49.930;8.660;2023-09-18T03:06:55;21.30;99.90
17341;DHT22;8788;49.930;8.660;2023-09-18T03:09:22;21.30;99.90
17341;DHT22;8788;49.930;8.660;2023-09-18T03:11:49;21.30;99.90
17341;DHT22;8788;49.930;8.660;2023-09-18T03:14:16;21.30;99.90
17341;DHT22;8788;49.930;8.660;2023-09-18T03:16:43;21.30;99.90
17341;DHT22;8788;49.930;8.660;2023-09-18T03:19:11;21.20;99.90
17341;DHT22;8788;49.930;8.660;2023-09-18T03:21:38;21.20;99.90
17341;DHT22;8788;49.930;8.660;2023-09-18T03:24:07;21.20;99.90
17341;DHT22;8788;49.930;8.660;2023-09-18T03:26:35;21.20;99.90
17341;DHT22;8788;49.930;8.660;2023-09-18T03:29:03;21.20;99.90
17341;DHT22;8788;49.930;8.660;2023-09-18T03:31:30;21.20;99.90
17341;DHT22;8788;49.930;8.660;2023-09-18T03:33:57;21.30;99.90
17341;DHT22;8788;49.930;8.660;2023-09-18T03:36:26;21.30;99.90
17341;DHT22;8788;49.930;8.660;2023-09-18T03:38:53;21.30;99.90
17341;DHT22;8788;49.930;8.660;2023-09-18T03:41:22;21.30;99.90
17341;DHT22;8788;49.930;8.660;2023-09-18T03:43:50;21.30;99.90
17341;DHT22;8788;49.930;8.660;2023-09-18T03:46:17;21.30;99.90
17341;DHT22;8788;49.930;8.660;2023-09-18T03:48:48;21.30;99.90
17341;DHT22;8788;49.930;8.660;2023-09-18T03:51:15;21.30;99.90
17341;DHT22;8788;49.930;8.660;2023-09-18T03:53:44;21.30;99.90
17341;DHT22;8788;49.930;8.660;2023-09-18T03:56:12;21.30;99.90
17341;DHT22;8788;49.930;8.660;2023-09-18T03:58:41;21.30;99.90
17341;DHT22;8788;49.930;8.660;2023-09-18T04:01:08;21.30;99.90
17341;DHT22;8788;49.930;8.660;2023-09-18T04:03:35;21.30;99.90
17341;DHT22;8788;49.930;8.660;2023-09-18T04:06:02;21.30;99.90
17341;DHT22;8788;49.930;8.660;2023-09-18T04:08:30;21.30;99.90
17341;DHT22;8788;49.930;8.660;2023-09-18T04:10:59;21.20;99.90
17341;DHT22;8788;49.930;8.660;2023-09-18T04:13:27;21.20;99.90
17341;DHT22;8788;49.930;8.660;2023-09-18T04:15:55;21.20;99.90
17341;DHT22;8788;49.930;8.660;2023-09-18T04:18:23;21.20;99.90
17341;DHT22;8788;49.930;8.660;2023-09-18T04:20:50;21.20;99.90
17341;DHT22;8788;49.930;8.660;2023-09-18T04:23:20;21.20;99.90
17341;DHT22;8788;49.930;8.660;2023-09-18T04:25:48;21.20;99.90
17341;DHT22;8788;49.930;8.660;2023-09-18T04:28:17;21.20;99.90
17341;DHT22;8788;49.930;8.660;2023-09-18T04:30:45;21.20;99.90
17341;DHT22;8788;49.930;8.660;2023-09-18T04:33:14;21.30;99.90
17341;DHT22;8788;49.930;8.660;2023-09-18T04:35:42;21.30;99.90
17341;DHT22;8788;49.930;8.660;2023-09-18T04:38:09;21.30;99.90
17341;DHT22;8788;49.930;8.660;2023-09-18T04:40:37;21.30;99.90
17341;DHT22;8788;49.930;8.660;2023-09-18T04:43:04;21.30;99.90
17341;DHT22;8788;49.930;8.660;2023-09-18T04:45:32;21.20;99.90
17341;DHT22;8788;49.930;8.660;2023-09-18T04:47:59;21.20;99.90
17341;DHT22;8788;49.930;8.660;2023-09-18T04:50:27;21.10;99.90
17341;DHT22;8788;49.930;8.660;2023-09-18T04:52:55;21.10;99.90
17341;DHT22;8788;49.930;8.660;2023-09-18T04:55:23;21.20;99.90
17341;DHT22;8788;49.930;8.660;2023-09-18T04:57:50;21.30;99.90
17341;DHT22;8788;49.930;8.660;2023-09-18T05:00:18;21.30;99.90
17341;DHT22;8788;49.930;8.660;2023-09-18T05:02:49;21.40;99.90
17341;DHT22;8788;49.930;8.660;2023-09-18T05:05:16;21.40;99.90
17341;DHT22;8788;49.930;8.660;2023-09-18T05:07:45;21.50;99.90
17341;DHT22;8788;49.930;8.660;2023-09-18T05:10:12;21.50;99.90
17341;DHT22;8788;49.930;8.660;2023-09-18T05:12:39;21.40;99.90
17341;DHT22;8788;49.930;8.660;2023-09-18T05:15:08;21.40;99.90
17341;DHT22;8788;49.930;8.660;2023-09-18T05:17:42;21.40;99.90
17341;DHT22;8788;49.930;8.660;2023-09-18T05:20:11;21.30;99.90
17341;DHT22;8788;49.930;8.660;2023-09-18T05:22:42;21.30;99.90
17341;DHT22;8788;49.930;8.660;2023-09-18T05:25:10;21.30;99.90
17341;DHT22;8788;49.930;8.660;2023-09-18T05:27:38;21.40;99.90
17341;DHT22;8788;49.930;8.660;2023-09-18T05:30:11;21.30;99.90
17341;DHT22;8788;49.930;8.660;2023-09-18T05:32:41;21.20;99.90
17341;DHT22;8788;49.930;8.660;2023-09-18T05:35:09;21.20;99.90
17341;DHT22;8788;49.930;8.660;2023-09-18T05:37:38;21.10;99.90
17341;DHT22;8788;49.930;8.660;2023-09-18T05:40:07;21.10;99.90
17341;DHT22;8788;49.930;8.660;2023-09-18T05:42:36;21.10;99.90
17341;DHT22;8788;49.930;8.660;2023-09-18T05:45:04;21.20;99.90
17341;DHT22;8788;49.930;8.660;2023-09-18T05:47:32;21.20;99.90
17341;DHT22;8788;49.930;8.660;2023-09-18T05:50:01;21.20;99.90
17341;DHT22;8788;49.930;8.660;2023-09-18T05:52:30;21.10;99.90
17341;DHT22;8788;49.930;8.660;2023-09-18T05:54:57;21.20;99.90
17341;DHT22;8788;49.930;8.660;2023-09-18T05:57:24;21.10;99.90
17341;DHT22;8788;49.930;8.660;2023-09-18T05:59:54;21.00;99.90
17341;DHT22;8788;49.930;8.660;2023-09-18T06:02:21;20.90;99.90
17341;DHT22;8788;49.930;8.660;2023-09-18T06:04:48;21.00;99.90
17341;DHT22;8788;49.930;8.660;2023-09-18T06:07:15;21.00;99.90
17341;DHT22;8788;49.930;8.660;2023-09-18T06:09:43;21.00;99.90
17341;DHT22;8788;49.930;8.660;2023-09-18T06:12:10;21.10;99.90
17341;DHT22;8788;49.930;8.660;2023-09-18T06:14:37;21.10;99.90
17341;DHT22;8788;49.930;8.660;2023-09-18T06:17:06;21.10;99.90
17341;DHT22;8788;49.930;8.660;2023-09-18T06:19:33;21.20;99.90
17341;DHT22;8788;49.930;8.660;2023-09-18T06:22:01;21.20;99.90
17341;DHT22;8788;49.930;8.660;2023-09-18T06:24:28;21.20;99.90
17341;DHT22;8788;49.930;8.660;2023-09-18T06:26:55;21.10;99.90
17341;DHT22;8788;49.930;8.660;2023-09-18T06:29:22;21.10;99.90
17341;DHT22;8788;49.930;8.660;2023-09-18T06:31:49;21.20;99.90
17341;DHT22;8788;49.930;8.660;2023-09-18T06:34:18;21.20;99.90
17341;DHT22;8788;49.930;8.660;2023-09-18T06:36:45;21.20;99.90
17341;DHT22;8788;49.930;8.660;2023-09-18T06:39:12;21.20;99.90
17341;DHT22;8788;49.930;8.660;2023-09-18T06:41:40;21.30;99.90
17341;DHT22;8788;49.930;8.660;2023-09-18T06:44:09;21.30;99.90
17341;DHT22;8788;49.930;8.660;2023-09-18T06:46:36;21.30;99.90
17341;DHT22;8788;49.930;8.660;2023-09-18T06:49:05;21.30;99.90
17341;DHT22;8788;49.930;8.660;2023-09-18T06:51:33;21.30;99.90
17341;DHT22;8788;49.930;8.660;2023-09-18T06:54:00;21.40;99.90
17341;DHT22;8788;49.930;8.660;2023-09-18T06:56:28;21.30;99.90
17341;DHT22;8788;49.930;8.660;2023-09-18T06:58:55;21.30;99.90
17341;DHT22;8788;49.930;8.660;2023-09-18T07:01:22;21.40;99.90
17341;DHT22;8788;49.930;8.660;2023-09-18T07:03:50;21.40;99.90
17341;DHT22;8788;49.930;8.660;2023-09-18T07:06:17;21.50;99.90
17341;DHT22;8788;49.930;8.660;2023-09-18T07:08:47;21.50;99.90
17341;DHT22;8788;49.930;8.660;2023-09-18T07:11:15;21.50;99.90
17341;DHT22;8788;49.930;8.660;2023-09-18T07:13:42;21.60;99.90
17341;DHT22;8788;49.930;8.660;2023-09-18T07:16:10;21.70;99.90
17341;DHT22;8788;49.930;8.660;2023-09-18T07:18:37;21.70;99.90
17341;DHT22;8788;49.930;8.660;2023-09-18T07:21:04;21.60;99.90
17341;DHT22;8788;49.930;8.660;2023-09-18T07:23:31;21.70;99.90
17341;DHT22;8788;49.930;8.660;2023-09-18T07:26:02;21.70;99.90
17341;DHT22;8788;49.930;8.660;2023-09-18T07:28:29;21.60;99.90
17341;DHT22;8788;49.930;8.660;2023-09-18T07:30:56;21.60;99.90
17341;DHT22;8788;49.930;8.660;2023-09-18T07:33:23;21.50;99.90
17341;DHT22;8788;49.930;8.660;2023-09-18T07:35:50;21.60;99.90
17341;DHT22;8788;49.930;8.660;2023-09-18T07:38:18;21.60;99.90
17341;DHT22;8788;49.930;8.660;2023-09-18T07:40:45;21.60;99.90
17341;DHT22;8788;49.930;8.660;2023-09-18T07:43:14;21.60;99.90
17341;DHT22;8788;49.930;8.660;2023-09-18T07:45:41;21.70;99.90
17341;DHT22;8788;49.930;8.660;2023-09-18T07:48:08;21.70;99.90
17341;DHT22;8788;49.930;8.660;2023-09-18T07:50:36;21.70;99.90
17341;DHT22;8788;49.930;8.660;2023-09-18T07:53:03;21.80;99.90
17341;DHT22;8788;49.930;8.660;2023-09-18T07:55:30;21.90;99.90
17341;DHT22;8788;49.930;8.660;2023-09-18T07:57:57;21.90;99.90
17341;DHT22;8788;49.930;8.660;2023-09-18T08:00:26;21.80;99.90
17341;DHT22;8788;49.930;8.660;2023-09-18T08:02:54;21.80;99.90
17341;DHT22;8788;49.930;8.660;2023-09-18T08:05:24;21.80;99.90
17341;DHT22;8788;49.930;8.660;2023-09-18T08:07:53;21.90;99.90
17341;DHT22;8788;49.930;8.660;2023-09-18T08:10:22;22.00;99.90
17341;DHT22;8788;49.930;8.660;2023-09-18T08:12:49;22.10;99.90
17341;DHT22;8788;49.930;8.660;2023-09-18T08:15:19;22.10;99.90
17341;DHT22;8788;49.930;8.660;2023-09-18T08:17:48;22.10;99.90
17341;DHT22;8788;49.930;8.660;2023-09-18T08:20:15;22.10;99.90
17341;DHT22;8788;49.930;8.660;2023-09-18T08:22:42;22.30;99.90
17341;DHT22;8788;49.930;8.660;2023-09-18T08:25:10;22.30;99.90
17341;DHT22;8788;49.930;8.660;2023-09-18T08:27:38;22.30;99.90
17341;DHT22;8788;49.930;8.660;2023-09-18T08:30:08;22.30;99.90
17341;DHT22;8788;49.930;8.660;2023-09-18T08:32:36;22.40;99.90
17341;DHT22;8788;49.930;8.660;2023-09-18T08:35:06;22.40;99.90
17341;DHT22;8788;49.930;8.660;2023-09-18T08:37:33;22.50;99.90
17341;DHT22;8788;49.930;8.660;2023-09-18T08:40:00;22.40;99.90
17341;DHT22;8788;49.930;8.660;2023-09-18T08:42:35;22.40;99.90
17341;DHT22;8788;49.930;8.660;2023-09-18T08:45:07;22.40;99.90
17341;DHT22;8788;49.930;8.660;2023-09-18T08:47:35;22.60;99.90
17341;DHT22;8788;49.930;8.660;2023-09-18T08:50:07;22.50;99.90
17341;DHT22;8788;49.930;8.660;2023-09-18T08:52:35;22.50;99.90
17341;DHT22;8788;49.930;8.660;2023-09-18T08:55:03;22.60;99.90
17341;DHT22;8788;49.930;8.660;2023-09-18T08:57:31;22.70;99.90
17341;DHT22;8788;49.930;8.660;2023-09-18T08:59:59;22.70;99.90
17341;DHT22;8788;49.930;8.660;2023-09-18T09:02:32;22.80;99.90
17341;DHT22;8788;49.930;8.660;2023-09-18T09:04:59;22.70;99.90
17341;DHT22;8788;49.930;8.660;2023-09-18T09:07:28;22.80;99.90
17341;DHT22;8788;49.930;8.660;2023-09-18T09:09:56;22.60;99.90
17341;DHT22;8788;49.930;8.660;2023-09-18T09:12:48;22.50;99.90
17341;DHT22;8788;49.930;8.660;2023-09-18T09:15:16;22.60;99.90
17341;DHT22;8788;49.930;8.660;2023-09-18T09:17:43;22.70;99.90
17341;DHT22;8788;49.930;8.660;2023-09-18T09:20:12;22.70;99.90
17341;DHT22;8788;49.930;8.660;2023-09-18T09:22:42;22.80;99.90
17341;DHT22;8788;49.930;8.660;2023-09-18T09:25:22;22.60;99.90
17341;DHT22;8788;49.930;8.660;2023-09-18T09:27:52;22.60;99.90
17341;DHT22;8788;49.930;8.660;2023-09-18T09:30:20;22.60;99.90
17341;DHT22;8788;49.930;8.660;2023-09-18T09:32:48;22.60;99.90
17341;DHT22;8788;49.930;8.660;2023-09-18T09:35:23;22.60;99.90
17341;DHT22;8788;49.930;8.660;2023-09-18T09:37:56;22.70;99.90
17341;DHT22;8788;49.930;8.660;2023-09-18T09:40:24;22.70;99.90
17341;DHT22;8788;49.930;8.660;2023-09-18T09:42:52;22.60;99.90
17341;DHT22;8788;49.930;8.660;2023-09-18T09:45:26;22.50;99.90
17341;DHT22;8788;49.930;8.660;2023-09-18T09:47:55;22.40;99.90
17341;DHT22;8788;49.930;8.660;2023-09-18T09:50:22;22.40;99.90
17341;DHT22;8788;49.930;8.660;2023-09-18T09:52:53;22.40;99.90
17341;DHT22;8788;49.930;8.660;2023-09-18T09:55:23;22.50;99.90
17341;DHT22;8788;49.930;8.660;2023-09-18T09:57:53;22.60;99.90
17341;DHT22;8788;49.930;8.660;2023-09-18T10:00:23;22.70;99.90
17341;DHT22;8788;49.930;8.660;2023-09-18T10:02:57;22.70;99.90
17341;DHT22;8788;49.930;8.660;2023-09-18T10:05:27;22.70;99.90
17341;DHT22;8788;49.930;8.660;2023-09-18T10:08:00;22.80;99.90
17341;DHT22;8788;49.930;8.660;2023-09-18T10:10:33;22.80;99.90
17341;DHT22;8788;49.930;8.660;2023-09-18T10:13:04;22.80;99.90
17341;DHT22;8788;49.930;8.660;2023-09-18T10:15:34;22.70;99.90
17341;DHT22;8788;49.930;8.660;2023-09-18T10:18:07;22.70;99.90
17341;DHT22;8788;49.930;8.660;2023-09-18T10:20:39;22.60;99.90
17341;DHT22;8788;49.930;8.660;2023-09-18T10:23:19;22.60;99.90
17341;DHT22;8788;49.930;8.660;2023-09-18T10:25:53;22.60;99.90
17341;DHT22;8788;49.930;8.660;2023-09-18T10:28:24;22.70;99.90
17341;DHT22;8788;49.930;8.660;2023-09-18T10:30:56;22.80;99.90
17341;DHT22;8788;49.930;8.660;2023-09-18T10:33:24;22.80;99.90
17341;DHT22;8788;49.930;8.660;2023-09-18T10:35:53;22.80;99.90
17341;DHT22;8788;49.930;8.660;2023-09-18T10:38:22;22.80;99.90
17341;DHT22;8788;49.930;8.660;2023-09-18T10:40:50;23.00;99.90
17341;DHT22;8788;49.930;8.660;2023-09-18T10:43:17;23.20;99.90
17341;DHT22;8788;49.930;8.660;2023-09-18T10:45:45;23.40;99.90
17341;DHT22;8788;49.930;8.660;2023-09-18T10:48:14;23.50;99.90
17341;DHT22;8788;49.930;8.660;2023-09-18T10:50:43;23.50;99.90
17341;DHT22;8788;49.930;8.660;2023-09-18T10:53:12;23.40;99.90
17341;DHT22;8788;49.930;8.660;2023-09-18T10:55:41;23.30;99.90
17341;DHT22;8788;49.930;8.660;2023-09-18T10:58:09;23.40;99.90
17341;DHT22;8788;49.930;8.660;2023-09-18T11:00:36;23.50;99.90
17341;DHT22;8788;49.930;8.660;2023-09-18T11:03:11;23.60;99.90
17341;DHT22;8788;49.930;8.660;2023-09-18T11:05:39;23.50;99.90
17341;DHT22;8788;49.930;8.660;2023-09-18T11:08:26;23.60;99.90
17341;DHT22;8788;49.930;8.660;2023-09-18T11:10:58;23.70;99.90
17341;DHT22;8788;49.930;8.660;2023-09-18T11:13:31;23.70;99.90
17341;DHT22;8788;49.930;8.660;2023-09-18T11:16:02;23.70;99.90
17341;DHT22;8788;49.930;8.660;2023-09-18T11:18:39;23.80;99.90
17341;DHT22;8788;49.930;8.660;2023-09-18T11:21:07;23.90;99.90
17341;DHT22;8788;49.930;8.660;2023-09-18T11:23:36;23.90;99.90
17341;DHT22;8788;49.930;8.660;2023-09-18T11:26:07;23.80;99.90
17341;DHT22;8788;49.930;8.660;2023-09-18T11:28:34;23.90;99.90
17341;DHT22;8788;49.930;8.660;2023-09-18T11:31:03;24.00;99.90
17341;DHT22;8788;49.930;8.660;2023-09-18T11:33:32;24.20;99.90
17341;DHT22;8788;49.930;8.660;2023-09-18T11:36:06;24.40;99.90
17341;DHT22;8788;49.930;8.660;2023-09-18T11:38:51;24.30;99.90
17341;DHT22;8788;49.930;8.660;2023-09-18T11:41:27;24.30;99.90
17341;DHT22;8788;49.930;8.660;2023-09-18T11:44:34;24.30;99.90
17341;DHT22;8788;49.930;8.660;2023-09-18T11:47:09;24.40;99.90
17341;DHT22;8788;49.930;8.660;2023-09-18T11:49:46;24.10;99.90
17341;DHT22;8788;49.930;8.660;2023-09-18T11:52:16;24.10;99.90
17341;DHT22;8788;49.930;8.660;2023-09-18T11:54:44;24.10;99.90
17341;DHT22;8788;49.930;8.660;2023-09-18T11:57:14;24.00;99.90
17341;DHT22;8788;49.930;8.660;2023-09-18T11:59:41;24.00;99.90
17341;DHT22;8788;49.930;8.660;2023-09-18T12:02:10;24.00;99.90
17341;DHT22;8788;49.930;8.660;2023-09-18T12:04:46;24.10;99.90
17341;DHT22;8788;49.930;8.660;2023-09-18T12:07:14;24.30;99.90
17341;DHT22;8788;49.930;8.660;2023-09-18T12:09:41;24.70;99.90
17341;DHT22;8788;49.930;8.660;2023-09-18T12:12:08;25.10;99.90
17341;DHT22;8788;49.930;8.660;2023-09-18T12:14:38;25.10;99.90
17341;DHT22;8788;49.930;8.660;2023-09-18T12:17:07;25.30;99.90
17341;DHT22;8788;49.930;8.660;2023-09-18T12:19:34;25.50;99.90
17341;DHT22;8788;49.930;8.660;2023-09-18T12:22:02;25.30;99.90
17341;DHT22;8788;49.930;8.660;2023-09-18T12:24:29;24.90;99.90
17341;DHT22;8788;49.930;8.660;2023-09-18T12:26:57;24.70;99.90
17341;DHT22;8788;49.930;8.660;2023-09-18T12:29:25;24.60;99.90
17341;DHT22;8788;49.930;8.660;2023-09-18T12:31:55;24.50;99.90
17341;DHT22;8788;49.930;8.660;2023-09-18T12:34:22;24.50;99.90
17341;DHT22;8788;49.930;8.660;2023-09-18T12:36:50;24.30;99.90
17341;DHT22;8788;49.930;8.660;2023-09-18T12:39:17;24.40;99.90
17341;DHT22;8788;49.930;8.660;2023-09-18T12:41:46;24.80;99.90
17341;DHT22;8788;49.930;8.660;2023-09-18T12:44:13;25.20;99.90
17341;DHT22;8788;49.930;8.660;2023-09-18T12:46:42;25.50;99.90
17341;DHT22;8788;49.930;8.660;2023-09-18T12:49:19;25.60;99.90
17341;DHT22;8788;49.930;8.660;2023-09-18T12:51:57;25.60;99.90
17341;DHT22;8788;49.930;8.660;2023-09-18T12:54:38;25.60;99.90
17341;DHT22;8788;49.930;8.660;2023-09-18T12:57:05;25.80;99.90
17341;DHT22;8788;49.930;8.660;2023-09-18T12:59:33;25.70;99.90
17341;DHT22;8788;49.930;8.660;2023-09-18T13:02:01;25.70;99.90
17341;DHT22;8788;49.930;8.660;2023-09-18T13:04:31;25.60;99.90
17341;DHT22;8788;49.930;8.660;2023-09-18T13:07:11;25.70;99.90
17341;DHT22;8788;49.930;8.660;2023-09-18T13:09:39;25.50;99.90
17341;DHT22;8788;49.930;8.660;2023-09-18T13:12:06;25.70;99.90
17341;DHT22;8788;49.930;8.660;2023-09-18T13:14:59;25.70;99.90
17341;DHT22;8788;49.930;8.660;2023-09-18T13:17:37;25.70;99.90
17341;DHT22;8788;49.930;8.660;2023-09-18T13:20:12;25.70;99.90
17341;DHT22;8788;49.930;8.660;2023-09-18T13:22:40;25.70;99.90
17341;DHT22;8788;49.930;8.660;2023-09-18T13:25:08;25.80;99.90
17341;DHT22;8788;49.930;8.660;2023-09-18T13:27:36;25.90;99.90
17341;DHT22;8788;49.930;8.660;2023-09-18T13:30:05;26.00;99.90
17341;DHT22;8788;49.930;8.660;2023-09-18T13:32:34;26.20;99.90
17341;DHT22;8788;49.930;8.660;2023-09-18T13:35:03;26.30;99.90
17341;DHT22;8788;49.930;8.660;2023-09-18T13:37:33;26.30;99.90
17341;DHT22;8788;49.930;8.660;2023-09-18T13:40:00;26.10;99.90
17341;DHT22;8788;49.930;8.660;2023-09-18T13:42:28;25.90;99.90
17341;DHT22;8788;49.930;8.660;2023-09-18T13:44:57;25.80;99.90
17341;DHT22;8788;49.930;8.660;2023-09-18T13:47:26;25.70;99.90
17341;DHT22;8788;49.930;8.660;2023-09-18T13:49:54;25.60;99.90
17341;DHT22;8788;49.930;8.660;2023-09-18T13:52:22;25.70;99.90
17341;DHT22;8788;49.930;8.660;2023-09-18T13:54:51;25.60;99.90
17341;DHT22;8788;49.930;8.660;2023-09-18T13:57:18;25.40;99.90
17341;DHT22;8788;49.930;8.660;2023-09-18T13:59:47;25.20;99.90
17341;DHT22;8788;49.930;8.660;2023-09-18T14:02:15;25.10;99.90
17341;DHT22;8788;49.930;8.660;2023-09-18T14:04:43;25.10;99.90
17341;DHT22;8788;49.930;8.660;2023-09-18T14:07:11;25.20;99.90
17341;DHT22;8788;49.930;8.660;2023-09-18T14:09:38;25.40;99.90
17341;DHT22;8788;49.930;8.660;2023-09-18T14:12:07;25.70;99.90
17341;DHT22;8788;49.930;8.660;2023-09-18T14:14:35;26.30;99.90
17341;DHT22;8788;49.930;8.660;2023-09-18T14:17:02;26.50;99.90
17341;DHT22;8788;49.930;8.660;2023-09-18T14:19:30;26.60;99.90
17341;DHT22;8788;49.930;8.660;2023-09-18T14:21:57;26.80;99.90
17341;DHT22;8788;49.930;8.660;2023-09-18T14:24:29;26.90;99.90
17341;DHT22;8788;49.930;8.660;2023-09-18T14:26:56;26.80;99.90
17341;DHT22;8788;49.930;8.660;2023-09-18T14:29:24;26.80;99.90
17341;DHT22;8788;49.930;8.660;2023-09-18T14:31:52;26.90;99.90
17341;DHT22;8788;49.930;8.660;2023-09-18T14:34:19;26.80;99.90
17341;DHT22;8788;49.930;8.660;2023-09-18T14:36:46;26.80;99.90
17341;DHT22;8788;49.930;8.660;2023-09-18T14:39:13;26.70;99.90
17341;DHT22;8788;49.930;8.660;2023-09-18T14:41:40;26.60;99.90
17341;DHT22;8788;49.930;8.660;2023-09-18T14:44:08;26.40;99.90
17341;DHT22;8788;49.930;8.660;2023-09-18T14:46:38;26.40;99.90
17341;DHT22;8788;49.930;8.660;2023-09-18T14:49:05;26.60;99.90
17341;DHT22;8788;49.930;8.660;2023-09-18T14:51:33;26.60;99.90
17341;DHT22;8788;49.930;8.660;2023-09-18T14:54:01;26.50;99.90
17341;DHT22;8788;49.930;8.660;2023-09-18T14:56:30;26.60;99.90
17341;DHT22;8788;49.930;8.660;2023-09-18T14:58:57;26.70;99.90
17341;DHT22;8788;49.930;8.660;2023-09-18T15:01:24;26.90;99.90
17341;DHT22;8788;49.930;8.660;2023-09-18T15:03:52;26.80;99.90
17341;DHT22;8788;49.930;8.660;2023-09-18T15:06:20;26.50;99.90
17341;DHT22;8788;49.930;8.660;2023-09-18T15:08:47;26.20;99.90
17341;DHT22;8788;49.930;8.660;2023-09-18T15:11:15;26.20;99.90
17341;DHT22;8788;49.930;8.660;2023-09-18T15:13:43;26.30;99.90
17341;DHT22;8788;49.930;8.660;2023-09-18T15:16:10;26.40;99.90
17341;DHT22;8788;49.930;8.660;2023-09-18T15:18:37;26.40;99.90
17341;DHT22;8788;49.930;8.660;2023-09-18T15:21:06;26.40;99.90
17341;DHT22;8788;49.930;8.660;2023-09-18T15:23:33;26.50;99.90
17341;DHT22;8788;49.930;8.660;2023-09-18T15:26:00;26.40;99.90
17341;DHT22;8788;49.930;8.660;2023-09-18T15:28:27;26.30;99.90
17341;DHT22;8788;49.930;8.660;2023-09-18T15:30:55;26.10;99.90
17341;DHT22;8788;49.930;8.660;2023-09-18T15:33:23;25.90;99.90
17341;DHT22;8788;49.930;8.660;2023-09-18T15:35:51;25.70;99.90
17341;DHT22;8788;49.930;8.660;2023-09-18T15:38:21;25.70;99.90
17341;DHT22;8788;49.930;8.660;2023-09-18T15:40:48;25.70;99.90
17341;DHT22;8788;49.930;8.660;2023-09-18T15:43:15;25.50;99.90
17341;DHT22;8788;49.930;8.660;2023-09-18T15:45:43;25.50;99.90
17341;DHT22;8788;49.930;8.660;2023-09-18T15:48:29;25.40;99.90
17341;DHT22;8788;49.930;8.660;2023-09-18T15:50:56;25.40;99.90
17341;DHT22;8788;49.930;8.660;2023-09-18T15:53:24;25.50;99.90
17341;DHT22;8788;49.930;8.660;2023-09-18T15:55:51;25.50;99.90